Time;durP1;ratioP1;P1;durP2;ratioP2;P2;SDS_P1;SDS_P2;PMS_P1;PMS_P2;Temp;Humidity;BMP_temperature;BMP_pressure;BME280_temperature;BME280_humidity;BME280_pressure;Samples;Min_cycle;Max_cycle;Signal;HPM_P1;HPM_P2
2022/01/02 00:02:22;;;;;;;6.10;3.75;;;7.50;84.90;;;;;;7373024;19;20254;-35
2022/01/02 00:05:16;;;;;;;5.55;4.15;;;7.60;84.20;;;;;;7371803;19;20142;-35
2022/01/02 00:08:08;;;;;;;5.35;4.20;;;7.50;84.10;;;;;;7373535;19;20614;-35
2022/01/02 00:11:00;;;;;;;8.68;4.78;;;7.60;84.00;;;;;;7363004;19;20154;-35
2022/01/02 00:13:56;;;;;;;6.20;4.40;;;7.60;83.60;;;;;;7369861;19;20135;-35
2022/01/02 00:16:45;;;;;;;6.88;4.85;;;7.60;83.60;;;;;;7368557;19;20128;-35
2022/01/02 00:19:37;;;;;;;4.85;4.13;;;7.60;83.30;;;;;;7371245;19;20151;-35
2022/01/02 00:22:34;;;;;;;6.93;4.35;;;7.60;84.50;;;;;;7369560;19;20608;-35
2022/01/02 00:25:28;;;;;;;6.15;4.38;;;7.60;83.20;;;;;;7370314;19;20624;-35
2022/01/02 00:28:18;;;;;;;5.90;4.20;;;7.60;83.20;;;;;;7370740;19;20131;-35
2022/01/02 00:31:06;;;;;;;8.27;5.40;;;7.50;83.40;;;;;;7367422;19;20820;-35
2022/01/02 00:33:54;;;;;;;5.50;3.92;;;7.40;83.70;;;;;;7364619;19;20128;-35
2022/01/02 00:36:42;;;;;;;5.72;3.60;;;7.40;83.80;;;;;;7372414;19;20207;-35
2022/01/02 00:39:33;;;;;;;5.15;4.20;;;7.50;83.80;;;;;;7362035;19;20610;-35
2022/01/02 00:42:30;;;;;;;4.68;3.80;;;7.50;83.30;;;;;;7371313;19;20164;-35
2022/01/02 00:45:25;;;;;;;5.95;3.78;;;7.60;83.20;;;;;;7368640;19;20154;-35
2022/01/02 00:48:17;;;;;;;4.53;3.88;;;7.50;83.10;;;;;;7371913;19;20463;-34
2022/01/02 00:51:16;;;;;;;5.18;3.63;;;7.50;82.90;;;;;;7365436;19;20124;-35
2022/01/02 00:54:05;;;;;;;5.18;4.32;;;7.50;83.00;;;;;;7366767;19;20598;-35
2022/01/02 00:57:05;;;;;;;5.07;3.70;;;7.40;83.10;;;;;;7376792;19;20135;-35
2022/01/02 01:00:06;;;;;;;5.38;3.85;;;7.40;83.30;;;;;;7375538;19;20509;-35
2022/01/02 01:02:58;;;;;;;5.78;3.50;;;7.50;84.50;;;;;;7370996;19;20530;-35
2022/01/02 01:05:47;;;;;;;7.22;4.30;;;7.50;83.30;;;;;;7368881;19;20624;-35
2022/01/02 01:08:41;;;;;;;5.03;3.70;;;7.50;82.90;;;;;;7370795;19;20136;-35
2022/01/02 01:11:32;;;;;;;6.57;2.97;;;7.40;82.80;;;;;;7365748;19;20163;-35
2022/01/02 01:14:22;;;;;;;5.25;3.45;;;7.50;82.90;;;;;;7372165;19;20132;-35
2022/01/02 01:17:14;;;;;;;8.43;4.00;;;7.40;83.50;;;;;;7375689;19;20127;-35
2022/01/02 01:20:04;;;;;;;6.18;4.53;;;7.40;83.40;;;;;;7370913;19;20503;-35
2022/01/02 01:22:52;;;;;;;4.32;3.20;;;7.40;83.20;;;;;;7380824;19;20565;-35
2022/01/02 01:25:44;;;;;;;5.18;3.92;;;7.40;83.70;;;;;;7374155;19;20123;-35
2022/01/02 01:28:32;;;;;;;5.68;3.50;;;7.40;82.60;;;;;;7372151;19;20174;-35
2022/01/02 01:31:23;;;;;;;3.33;3.03;;;7.30;83.10;;;;;;7369504;19;20167;-35
2022/01/02 01:34:11;;;;;;;9.75;3.55;;;7.30;83.20;;;;;;7378854;19;20191;-35
2022/01/02 01:36:59;;;;;;;4.45;3.78;;;7.30;83.30;;;;;;7372102;19;20131;-35
2022/01/02 01:39:47;;;;;;;4.75;3.22;;;7.20;84.00;;;;;;7373028;19;20132;-35
2022/01/02 01:42:38;;;;;;;5.13;3.67;;;7.10;84.40;;;;;;7375893;19;20132;-35
2022/01/02 01:45:33;;;;;;;6.53;3.00;;;7.20;84.00;;;;;;7370601;19;20131;-35
2022/01/02 01:48:27;;;;;;;7.75;3.25;;;7.30;83.40;;;;;;7378277;19;20131;-35
2022/01/02 01:51:15;;;;;;;5.45;3.97;;;7.00;83.70;;;;;;7370469;19;20137;-35
2022/01/02 01:54:06;;;;;;;3.15;2.80;;;7.20;83.40;;;;;;7372303;19;20132;-35
2022/01/02 01:56:55;;;;;;;3.67;2.97;;;7.30;82.70;;;;;;7368105;19;20143;-35
2022/01/02 01:59:49;;;;;;;5.22;3.05;;;7.10;83.50;;;;;;7372198;19;20124;-35
2022/01/02 02:02:38;;;;;;;4.30;3.22;;;7.10;84.00;;;;;;7369841;19;20159;-35
2022/01/02 02:05:28;;;;;;;5.55;3.25;;;7.00;84.10;;;;;;7374297;19;20140;-35
2022/01/02 02:08:16;;;;;;;5.93;3.80;;;7.10;84.10;;;;;;7375905;19;20161;-35
2022/01/02 02:11:04;;;;;;;6.03;3.38;;;7.10;83.60;;;;;;7362602;19;20231;-35
2022/01/02 02:13:54;;;;;;;3.40;2.80;;;7.20;83.30;;;;;;7362250;19;20135;-35
2022/01/02 02:16:42;;;;;;;6.72;3.00;;;7.20;83.10;;;;;;7366266;19;20148;-35
2022/01/02 02:19:34;;;;;;;4.28;3.40;;;7.30;82.90;;;;;;7370615;19;20128;-35
2022/01/02 02:22:26;;;;;;;4.90;3.08;;;7.10;83.50;;;;;;7373252;19;20132;-35
2022/01/02 02:25:16;;;;;;;4.85;3.25;;;7.10;83.70;;;;;;7371225;19;20152;-34
2022/01/02 02:28:08;;;;;;;5.72;2.92;;;7.10;83.20;;;;;;7375850;19;20140;-35
2022/01/02 02:30:57;;;;;;;7.95;3.00;;;7.00;83.10;;;;;;7372378;19;20324;-35
2022/01/02 02:33:45;;;;;;;4.18;3.08;;;7.00;83.60;;;;;;7371593;19;20127;-35
2022/01/02 02:36:33;;;;;;;5.25;3.65;;;7.10;83.00;;;;;;7370881;19;21175;-35
2022/01/02 02:39:26;;;;;;;3.97;2.80;;;7.10;82.50;;;;;;7373073;19;20155;-34
2022/01/02 02:42:26;;;;;;;3.22;2.80;;;7.10;82.60;;;;;;7371612;19;21419;-35
2022/01/02 02:51:30;;;;;;;3.60;2.65;;;7.10;82.80;;;;;;7373904;19;20211;-35
2022/01/02 02:54:26;;;;;;;9.80;4.30;;;7.00;82.50;;;;;;7366210;19;20123;-34
2022/01/02 02:57:15;;;;;;;5.50;3.63;;;7.10;82.30;;;;;;7368726;19;20140;-35
2022/01/02 03:00:04;;;;;;;5.88;3.17;;;7.10;82.30;;;;;;7372932;19;20615;-35
2022/01/02 03:02:54;;;;;;;5.00;4.18;;;7.00;82.40;;;;;;7376733;19;20145;-35
2022/01/02 03:05:42;;;;;;;5.30;4.35;;;7.00;82.50;;;;;;7368639;19;20147;-35
2022/01/02 03:08:31;;;;;;;6.90;3.92;;;7.00;82.10;;;;;;7369833;19;20147;-35
2022/01/02 03:11:24;;;;;;;5.03;3.60;;;7.00;81.80;;;;;;7364927;19;20172;-35
2022/01/02 03:14:16;;;;;;;3.80;2.60;;;7.00;81.90;;;;;;7369143;19;20131;-34
2022/01/02 03:17:06;;;;;;;5.00;3.25;;;7.00;81.90;;;;;;7360446;19;20155;-35
2022/01/02 03:19:55;;;;;;;5.95;3.67;;;7.00;81.90;;;;;;7373717;19;20144;-35
2022/01/02 03:22:43;;;;;;;5.47;3.03;;;7.00;82.00;;;;;;7364927;19;20135;-35
2022/01/02 03:25:32;;;;;;;4.18;3.30;;;7.00;82.30;;;;;;7371950;19;20135;-35
2022/01/02 03:28:22;;;;;;;4.53;3.22;;;7.00;82.10;;;;;;7375499;19;20131;-35
2022/01/02 03:31:11;;;;;;;5.60;3.47;;;7.10;81.90;;;;;;7370043;19;20672;-34
2022/01/02 03:33:59;;;;;;;5.40;3.50;;;7.00;81.80;;;;;;7374892;19;20144;-35
2022/01/02 03:36:50;;;;;;;6.28;4.20;;;6.90;82.30;;;;;;7367084;19;20135;-35
2022/01/02 03:39:38;;;;;;;4.97;3.85;;;6.90;82.30;;;;;;7370695;19;20234;-35
2022/01/02 03:42:27;;;;;;;4.15;3.25;;;7.00;81.70;;;;;;7372259;19;20132;-35
2022/01/02 03:45:18;;;;;;;5.30;3.33;;;7.00;81.90;;;;;;7368579;19;20147;-35
2022/01/02 03:48:06;;;;;;;7.18;3.78;;;6.90;82.30;;;;;;7360432;19;20668;-34
2022/01/02 03:50:54;;;;;;;5.60;3.63;;;6.90;82.20;;;;;;7371665;19;20690;-35
2022/01/02 03:53:43;;;;;;;6.00;3.90;;;6.90;81.70;;;;;;7371772;19;20135;-35
2022/01/02 03:56:30;;;;;;;5.95;3.85;;;6.80;82.00;;;;;;7368257;19;20140;-35
2022/01/02 03:59:19;;;;;;;4.43;3.50;;;6.80;82.40;;;;;;7370832;19;20135;-35
2022/01/02 04:02:09;;;;;;;4.35;3.95;;;6.80;82.10;;;;;;7366208;19;20132;-35
2022/01/02 04:04:58;;;;;;;4.43;3.60;;;6.80;82.00;;;;;;7368895;19;20143;-35
2022/01/02 04:07:46;;;;;;;4.32;3.30;;;6.80;82.40;;;;;;7374381;19;20143;-35
2022/01/02 04:10:34;;;;;;;4.82;3.50;;;6.80;82.00;;;;;;7364084;19;20171;-35
2022/01/02 04:13:22;;;;;;;5.07;4.38;;;6.80;81.60;;;;;;7368602;19;20151;-35
2022/01/02 04:16:10;;;;;;;7.20;3.80;;;6.80;81.90;;;;;;7367643;19;20136;-35
2022/01/02 04:19:01;;;;;;;5.50;4.05;;;6.70;81.70;;;;;;7370275;19;20163;-35
2022/01/02 04:21:49;;;;;;;5.70;4.00;;;6.70;81.60;;;;;;7371510;19;20135;-39
2022/01/02 04:24:37;;;;;;;6.32;3.47;;;6.50;82.40;;;;;;7347825;19;20589;-37
2022/01/02 04:27:26;;;;;;;6.95;4.00;;;6.50;82.90;;;;;;7364231;19;20132;-37
2022/01/02 04:30:15;;;;;;;6.65;4.30;;;6.50;82.70;;;;;;7374029;19;20132;-36
2022/01/02 04:33:03;;;;;;;5.32;3.40;;;6.60;82.90;;;;;;7378195;19;20578;-36
2022/01/02 04:35:55;;;;;;;11.20;4.22;;;6.70;82.30;;;;;;7375043;19;20131;-36
2022/01/02 04:38:45;;;;;;;5.70;4.20;;;6.60;82.90;;;;;;7378336;19;20139;-36
2022/01/02 04:41:33;;;;;;;7.40;4.13;;;6.70;81.90;;;;;;7376969;19;20128;-36
2022/01/02 04:44:21;;;;;;;6.35;4.40;;;6.70;81.90;;;;;;7376145;19;20135;-37
2022/01/02 04:47:10;;;;;;;7.85;4.65;;;6.60;82.00;;;;;;7376273;19;20135;-36
2022/01/02 04:49:58;;;;;;;7.15;3.75;;;6.70;82.60;;;;;;7376033;19;20548;-35
2022/01/02 04:52:50;;;;;;;4.43;4.00;;;6.70;81.50;;;;;;7372098;19;20546;-35
2022/01/02 04:55:39;;;;;;;5.50;4.38;;;6.60;81.60;;;;;;7371423;19;20135;-35
2022/01/02 04:58:27;;;;;;;6.03;4.30;;;6.70;81.60;;;;;;7375696;19;20215;-35
2022/01/02 05:01:16;;;;;;;7.30;4.18;;;6.60;81.50;;;;;;7371809;19;20602;-35
2022/01/02 05:04:05;;;;;;;5.10;3.97;;;6.60;82.00;;;;;;7375248;19;20136;-35
2022/01/02 05:06:53;;;;;;;5.78;3.85;;;6.60;82.20;;;;;;7374664;19;20132;-35
2022/01/02 05:09:45;;;;;;;6.85;4.72;;;6.60;82.30;;;;;;7380356;19;20135;-35
2022/01/02 05:12:34;;;;;;;9.57;4.15;;;6.70;82.10;;;;;;7373084;19;20140;-35
2022/01/02 05:15:22;;;;;;;5.88;4.35;;;6.70;81.90;;;;;;7378438;19;20136;-35
2022/01/02 05:18:11;;;;;;;6.63;3.80;;;6.80;81.90;;;;;;7373226;19;20145;-35
2022/01/02 05:20:59;;;;;;;6.95;4.18;;;6.70;81.50;;;;;;7375438;19;20153;-35
2022/01/02 05:23:47;;;;;;;5.68;3.70;;;6.70;82.10;;;;;;7375499;19;20124;-35
2022/01/02 05:26:38;;;;;;;4.90;3.95;;;6.70;82.10;;;;;;7374991;19;20139;-34
2022/01/02 05:29:27;;;;;;;7.60;4.70;;;6.70;81.70;;;;;;7376371;19;20135;-35
2022/01/02 05:32:16;;;;;;;7.32;3.92;;;6.80;82.20;;;;;;7365515;19;20238;-34
2022/01/02 05:35:04;;;;;;;6.18;3.90;;;6.70;81.90;;;;;;7376748;19;20545;-34
2022/01/02 05:37:53;;;;;;;6.20;4.63;;;6.60;82.60;;;;;;7373507;19;20591;-34
2022/01/02 05:40:41;;;;;;;4.88;3.65;;;6.70;83.20;;;;;;7371605;19;20139;-34
2022/01/02 05:43:31;;;;;;;6.45;4.35;;;6.70;82.30;;;;;;7375644;19;20767;-34
2022/01/02 05:46:20;;;;;;;6.38;4.20;;;6.70;82.30;;;;;;7373894;19;20163;-34
2022/01/02 05:49:08;;;;;;;7.20;5.97;;;6.70;82.20;;;;;;7371855;19;20143;-34
2022/01/02 05:51:56;;;;;;;6.28;5.63;;;6.80;81.50;;;;;;7370967;19;20132;-34
2022/01/02 05:54:45;;;;;;;7.88;5.80;;;6.80;81.60;;;;;;7371770;19;20139;-34
2022/01/02 05:57:34;;;;;;;8.65;6.20;;;6.80;81.60;;;;;;7375314;19;20128;-34
2022/01/02 06:00:26;;;;;;;10.55;7.47;;;6.90;81.10;;;;;;7371980;19;20138;-34
2022/01/02 06:03:20;;;;;;;7.30;5.60;;;7.00;81.60;;;;;;7371469;19;21691;-34
2022/01/02 06:06:09;;;;;;;8.82;6.30;;;7.00;81.20;;;;;;7373177;19;20132;-34
2022/01/02 06:08:57;;;;;;;8.27;6.60;;;7.00;81.30;;;;;;7375567;19;20144;-34
2022/01/02 06:11:45;;;;;;;7.65;5.38;;;7.10;80.80;;;;;;7370502;19;20170;-34
2022/01/02 06:14:33;;;;;;;7.53;5.43;;;7.00;81.00;;;;;;7376102;19;20132;-34
2022/01/02 06:17:24;;;;;;;7.18;5.20;;;7.00;80.80;;;;;;7363276;19;20135;-34
2022/01/02 06:20:13;;;;;;;5.88;5.18;;;7.00;80.20;;;;;;7376445;19;20127;-35
2022/01/02 06:23:01;;;;;;;8.02;4.43;;;7.10;80.30;;;;;;7374998;19;20187;-35
2022/01/02 06:25:49;;;;;;;6.60;4.65;;;7.10;80.00;;;;;;7375199;19;20131;-34
2022/01/02 06:28:38;;;;;;;8.10;4.72;;;7.00;80.10;;;;;;7377690;19;20602;-34
2022/01/02 06:31:26;;;;;;;5.82;4.38;;;7.00;80.80;;;;;;7373281;19;20610;-35
2022/01/02 06:34:21;;;;;;;5.70;4.68;;;7.00;81.20;;;;;;7367204;19;20139;-35
2022/01/02 06:37:11;;;;;;;5.25;4.63;;;7.10;80.70;;;;;;7372990;19;20636;-35
2022/01/02 06:40:00;;;;;;;8.45;5.40;;;7.10;80.10;;;;;;7365332;19;20136;-35
2022/01/02 06:42:48;;;;;;;6.85;4.70;;;7.00;80.10;;;;;;7372194;19;20154;-37
2022/01/02 06:45:37;;;;;;;4.88;4.38;;;7.00;80.10;;;;;;7374264;19;20207;-35
2022/01/02 06:48:25;;;;;;;6.20;4.55;;;7.00;80.70;;;;;;7374600;19;20144;-35
2022/01/02 06:51:16;;;;;;;5.40;4.57;;;7.10;80.50;;;;;;7373852;19;20517;-35
2022/01/02 06:54:04;;;;;;;8.52;4.85;;;7.10;81.00;;;;;;7371972;19;20131;-35
2022/01/02 06:56:52;;;;;;;6.40;5.13;;;7.10;80.60;;;;;;7373555;19;20548;-35
2022/01/02 06:59:41;;;;;;;7.22;4.93;;;7.10;80.70;;;;;;7376991;19;20154;-37
2022/01/02 07:02:29;;;;;;;5.07;4.00;;;7.00;80.90;;;;;;7371174;19;20640;-37
2022/01/02 07:05:17;;;;;;;6.18;4.70;;;6.80;82.00;;;;;;7372505;19;20480;-37
2022/01/02 07:08:08;;;;;;;5.38;4.85;;;6.80;82.50;;;;;;7368689;19;20158;-37
2022/01/02 07:11:00;;;;;;;4.30;3.60;;;6.70;82.50;;;;;;7367004;19;20171;-37
2022/01/02 07:13:48;;;;;;;5.97;4.35;;;6.80;82.70;;;;;;7373355;19;20127;-36
2022/01/02 07:16:36;;;;;;;4.15;3.42;;;6.90;82.50;;;;;;7374345;19;20160;-37
2022/01/02 07:19:24;;;;;;;4.95;4.40;;;7.10;82.10;;;;;;7376008;19;20199;-37
2022/01/02 07:22:13;;;;;;;6.75;4.68;;;7.10;81.60;;;;;;7369013;19;20132;-37
2022/01/02 07:25:04;;;;;;;5.82;4.60;;;7.20;81.30;;;;;;7366275;19;20443;-36
2022/01/02 07:27:52;;;;;;;6.50;5.00;;;7.20;81.30;;;;;;7371180;19;20771;-37
2022/01/02 07:30:39;;;;;;;4.35;3.95;;;7.30;81.10;;;;;;7369544;19;20857;-35
2022/01/02 07:33:27;;;;;;;5.47;4.40;;;7.20;80.70;;;;;;7365076;19;20132;-35
2022/01/02 07:36:18;;;;;;;6.72;4.20;;;7.20;81.10;;;;;;7363555;19;20127;-35
2022/01/02 07:39:06;;;;;;;4.90;3.55;;;7.20;81.80;;;;;;7370693;19;20166;-35
2022/01/02 07:41:57;;;;;;;8.70;5.20;;;7.40;81.60;;;;;;7365428;19;21563;-35
2022/01/02 07:44:51;;;;;;;7.90;5.88;;;7.50;80.60;;;;;;7359418;19;20155;-35
2022/01/02 07:47:41;;;;;;;8.18;5.75;;;7.60;79.10;;;;;;7367176;19;20155;-35
2022/01/02 07:50:29;;;;;;;9.02;6.47;;;7.60;78.10;;;;;;7372785;19;20650;-35
2022/01/02 07:53:17;;;;;;;8.90;6.30;;;7.60;78.10;;;;;;7373323;19;20653;-35
2022/01/02 07:56:05;;;;;;;7.03;5.82;;;7.60;78.00;;;;;;7357341;19;20982;-35
2022/01/02 07:58:57;;;;;;;8.63;6.68;;;7.70;77.90;;;;;;7363216;19;20123;-35
2022/01/02 08:01:46;;;;;;;7.45;5.78;;;7.60;77.30;;;;;;7361073;19;20146;-35
2022/01/02 08:04:34;;;;;;;8.35;6.00;;;7.60;77.40;;;;;;7374989;19;20131;-35
2022/01/02 08:07:21;;;;;;;12.38;6.38;;;7.50;77.70;;;;;;7372605;19;20135;-35
2022/01/02 08:10:10;;;;;;;8.07;5.90;;;7.60;77.20;;;;;;7373643;19;20166;-35
2022/01/02 08:12:59;;;;;;;9.05;7.15;;;7.60;78.50;;;;;;7361199;19;20131;-35
2022/01/02 08:15:50;;;;;;;6.97;6.28;;;7.70;77.30;;;;;;7375794;19;20157;-35
2022/01/02 08:18:38;;;;;;;6.55;5.53;;;7.70;77.40;;;;;;7378645;19;20151;-35
2022/01/02 08:21:26;;;;;;;9.27;6.30;;;7.70;77.40;;;;;;7360862;19;20128;-35
2022/01/02 08:24:15;;;;;;;9.63;5.60;;;7.70;77.80;;;;;;7369844;19;20120;-35
2022/01/02 08:27:03;;;;;;;8.18;7.35;;;7.80;78.50;;;;;;7365791;19;21828;-34
2022/01/02 08:29:51;;;;;;;9.15;6.68;;;7.80;78.60;;;;;;7367992;19;20151;-35
2022/01/02 08:32:41;;;;;;;8.05;6.50;;;7.80;79.00;;;;;;7359618;19;20191;-35
2022/01/02 08:35:29;;;;;;;9.60;6.57;;;8.10;78.10;;;;;;7371695;19;20478;-34
2022/01/02 08:38:18;;;;;;;7.00;6.22;;;8.30;77.10;;;;;;7373200;19;20135;-35
2022/01/02 08:41:06;;;;;;;7.40;5.95;;;8.50;74.20;;;;;;7362990;19;20223;-37
2022/01/02 08:43:54;;;;;;;7.15;5.85;;;8.70;73.60;;;;;;7373187;19;20128;-37
2022/01/02 08:46:42;;;;;;;9.43;5.15;;;8.80;73.60;;;;;;7362519;19;20161;-37
2022/01/02 08:49:32;;;;;;;6.70;4.95;;;8.90;73.00;;;;;;7364258;19;20132;-37
2022/01/02 08:52:23;;;;;;;8.50;6.32;;;9.00;72.20;;;;;;7365078;19;20132;-37
2022/01/02 08:55:11;;;;;;;8.18;6.05;;;9.10;71.70;;;;;;7358560;19;20131;-36
2022/01/02 08:57:59;;;;;;;6.82;5.93;;;9.30;70.90;;;;;;7366533;19;20143;-36
2022/01/02 09:00:48;;;;;;;6.43;5.32;;;9.40;70.00;;;;;;7366179;19;20132;-37
2022/01/02 09:03:36;;;;;;;6.70;5.50;;;9.40;69.60;;;;;;7367940;19;20252;-37
2022/01/02 09:06:26;;;;;;;7.38;5.95;;;9.40;70.20;;;;;;7371957;19;20424;-37
2022/01/02 09:09:14;;;;;;;7.88;5.95;;;9.50;70.80;;;;;;7375821;19;20213;-37
2022/01/02 09:12:02;;;;;;;9.10;6.20;;;9.70;69.80;;;;;;7366396;19;20508;-35
2022/01/02 09:14:50;;;;;;;9.40;6.67;;;10.10;68.20;;;;;;7363786;19;20718;-35
2022/01/02 09:17:38;;;;;;;7.00;5.93;;;10.90;65.10;;;;;;7362471;19;20404;-36
2022/01/02 09:20:26;;;;;;;6.37;5.77;;;11.60;62.70;;;;;;7361335;19;21431;-35
2022/01/02 09:23:16;;;;;;;8.40;6.53;;;12.80;60.10;;;;;;7371476;19;21661;-35
2022/01/02 09:26:05;;;;;;;7.40;5.47;;;14.00;57.00;;;;;;7356570;19;25832;-36
2022/01/02 09:28:53;;;;;;;5.97;5.37;;;15.10;53.90;;;;;;7360282;19;21024;-36
2022/01/02 09:31:41;;;;;;;6.80;5.47;;;15.10;52.60;;;;;;7360149;19;20480;-36
2022/01/02 09:34:29;;;;;;;6.97;5.03;;;14.50;53.40;;;;;;7369801;19;20403;-36
2022/01/02 09:37:17;;;;;;;6.20;5.60;;;13.90;55.00;;;;;;7363897;19;20455;-36
2022/01/02 09:40:09;;;;;;;6.57;5.70;;;13.30;55.90;;;;;;7362619;19;20391;-36
2022/01/02 09:42:58;;;;;;;7.63;5.70;;;12.80;57.30;;;;;;7376303;19;20411;-36
2022/01/02 09:45:48;;;;;;;7.00;6.07;;;12.40;58.30;;;;;;7373473;19;20944;-36
2022/01/02 09:48:36;;;;;;;6.53;5.87;;;12.10;59.30;;;;;;7375290;19;20451;-36
2022/01/02 09:51:29;;;;;;;8.87;5.83;;;11.80;60.00;;;;;;7368288;19;20396;-36
2022/01/02 09:54:18;;;;;;;7.00;5.80;;;11.70;61.20;;;;;;7371268;19;20431;-36
2022/01/02 09:56:53;;;;;;;7.17;5.83;;;11.50;61.20;;;;;;7359099;19;20374;-36
2022/01/02 09:59:22;;;;;;;6.00;5.43;;;11.40;61.40;;;;;;7368373;19;20416;-36
2022/01/02 10:01:51;;;;;;;6.80;5.60;;;11.30;61.50;;;;;;7365410;19;20376;-36
2022/01/02 10:04:34;;;;;;;7.53;5.93;;;11.20;61.90;;;;;;7372246;19;20941;-36
2022/01/02 10:07:05;;;;;;;10.60;6.47;;;11.20;62.20;;;;;;7366438;19;20381;-36
2022/01/02 10:09:38;;;;;;;8.53;6.10;;;11.20;62.20;;;;;;7353872;19;20913;-36
2022/01/02 10:12:30;;;;;;;6.60;5.60;;;11.00;63.10;;;;;;7367558;19;20408;-36
2022/01/02 10:15:13;;;;;;;8.73;5.90;;;10.90;64.10;;;;;;7369388;19;20381;-36
2022/01/02 10:18:04;;;;;;;8.30;5.30;;;11.10;64.60;;;;;;7373884;19;20388;-36
2022/01/02 10:20:37;;;;;;;6.77;5.40;;;11.30;64.00;;;;;;7365237;19;20451;-36
2022/01/02 10:23:16;;;;;;;7.10;5.60;;;11.20;65.50;;;;;;7372849;19;20380;-36
2022/01/02 10:25:51;;;;;;;7.63;5.63;;;11.20;65.00;;;;;;7365611;19;20388;-36
2022/01/02 10:28:36;;;;;;;7.53;6.30;;;11.10;65.10;;;;;;7361130;19;20443;-36
2022/01/02 10:31:07;;;;;;;7.20;5.27;;;11.10;65.30;;;;;;7365323;19;21057;-36
2022/01/02 10:33:55;;;;;;;8.50;6.90;;;11.00;64.80;;;;;;7365503;19;20404;-36
2022/01/02 10:36:29;;;;;;;7.87;6.90;;;10.90;65.40;;;;;;7369360;19;20391;-37
2022/01/02 10:39:05;;;;;;;11.17;6.70;;;10.80;66.10;;;;;;7354304;19;21204;-36
2022/01/02 10:41:38;;;;;;;7.87;6.73;;;10.70;65.90;;;;;;7367913;19;20372;-36
2022/01/02 10:44:33;;;;;;;10.07;6.50;;;10.70;65.90;;;;;;7353581;19;20408;-36
2022/01/02 10:47:15;;;;;;;8.67;6.83;;;10.70;65.90;;;;;;7364340;19;20384;-36
2022/01/02 10:49:58;;;;;;;9.50;6.77;;;10.70;65.50;;;;;;7364014;19;20375;-36
2022/01/02 10:52:30;;;;;;;10.13;6.57;;;10.70;64.70;;;;;;7363391;19;20990;-35
2022/01/02 10:55:05;;;;;;;8.37;6.17;;;10.70;64.70;;;;;;7367829;19;20364;-36
2022/01/02 10:57:34;;;;;;;8.00;6.33;;;10.60;65.30;;;;;;7366056;19;20375;-36
2022/01/02 11:00:08;;;;;;;9.97;7.17;;;10.50;66.20;;;;;;7367571;19;21012;-36
2022/01/02 11:02:41;;;;;;;8.43;6.80;;;10.50;66.70;;;;;;7372569;19;20364;-36
2022/01/02 11:05:14;;;;;;;10.03;7.93;;;10.50;67.70;;;;;;7367570;19;20743;-36
2022/01/02 11:07:46;;;;;;;11.70;9.20;;;10.50;68.00;;;;;;7358479;19;20949;-36
2022/01/02 11:10:17;;;;;;;13.77;9.67;;;10.70;67.80;;;;;;7338993;19;20408;-35
2022/01/02 11:12:47;;;;;;;8.70;6.33;;;10.80;66.10;;;;;;7358722;19;20380;-36
2022/01/02 11:15:22;;;;;;;7.77;5.80;;;10.90;66.50;;;;;;7354544;19;20734;-36
2022/01/02 11:17:53;;;;;;;6.43;5.77;;;10.90;65.40;;;;;;7369296;19;21398;-36
2022/01/02 11:20:24;;;;;;;8.20;6.40;;;10.90;63.40;;;;;;7376518;19;20383;-35
2022/01/02 11:23:03;;;;;;;10.37;7.40;;;10.80;64.00;;;;;;7366347;19;20377;-36
2022/01/02 11:25:39;;;;;;;8.90;6.70;;;10.90;64.70;;;;;;7371776;19;20379;-36
2022/01/02 11:28:16;;;;;;;8.27;6.07;;;10.90;64.50;;;;;;7368891;19;20372;-35
2022/01/02 11:30:52;;;;;;;6.50;5.00;;;11.00;64.20;;;;;;7376607;19;20480;-36
2022/01/02 11:33:32;;;;;;;8.07;5.97;;;11.10;64.20;;;;;;7372159;19;20375;-36
2022/01/02 11:36:03;;;;;;;8.00;5.30;;;11.30;64.20;;;;;;7359096;19;20735;-36
2022/01/02 11:38:46;;;;;;;8.87;6.13;;;11.30;64.10;;;;;;7365598;19;20387;-36
2022/01/02 11:41:36;;;;;;;7.57;6.03;;;11.40;65.20;;;;;;7364784;19;20375;-36
2022/01/02 11:44:08;;;;;;;2.90;2.57;;;11.40;63.20;;;;;;7354916;19;20408;-36
2022/01/02 11:46:50;;;;;;;3.10;2.10;;;11.70;57.40;;;;;;7360986;19;20392;-36
2022/01/02 11:49:25;;;;;;;1.37;1.27;;;11.90;57.00;;;;;;7355745;19;21041;-36
2022/01/02 11:52:12;;;;;;;1.90;1.30;;;12.30;53.00;;;;;;7363670;19;20376;-37
2022/01/02 11:54:53;;;;;;;1.53;1.37;;;12.60;52.70;;;;;;7363154;19;20387;-37
2022/01/02 11:57:49;;;;;;;1.97;1.57;;;12.60;53.40;;;;;;7364046;19;20368;-37
2022/01/02 12:00:39;;;;;;;2.70;2.00;;;12.60;53.50;;;;;;7366097;19;20799;-37
2022/01/02 12:03:46;;;;;;;4.47;4.07;;;12.60;54.90;;;;;;7367620;19;20424;-37
2022/01/02 12:06:21;;;;;;;4.67;3.30;;;12.50;56.20;;;;;;7361400;19;20372;-37
2022/01/02 12:08:52;;;;;;;3.00;2.27;;;12.50;56.70;;;;;;7356979;19;20392;-37
2022/01/02 12:11:54;;;;;;;3.33;1.70;;;12.50;54.40;;;;;;7346745;19;20802;-38
2022/01/02 12:14:24;;;;;;;1.33;1.10;;;12.70;53.50;;;;;;7357591;19;20406;-37
2022/01/02 12:17:09;;;;;;;2.20;1.17;;;12.80;51.20;;;;;;7357550;19;24258;-37
2022/01/02 12:20:07;;;;;;;2.47;1.93;;;13.20;50.20;;;;;;7363554;19;20802;-36
2022/01/02 12:22:51;;;;;;;1.60;1.30;;;13.40;49.40;;;;;;7351170;19;21319;-36
2022/01/02 12:25:23;;;;;;;3.23;1.40;;;13.70;48.40;;;;;;7356617;19;20159;-36
2022/01/02 12:27:55;;;;;;;1.70;1.43;;;14.00;47.70;;;;;;7343725;19;20898;-36
2022/01/02 12:30:25;;;;;;;1.33;1.07;;;14.40;47.10;;;;;;7351162;19;20397;-36
2022/01/02 12:32:55;;;;;;;2.83;1.37;;;14.60;46.60;;;;;;7360910;19;20376;-36
2022/01/02 12:35:27;;;;;;;1.83;1.30;;;14.80;46.20;;;;;;7357744;19;20931;-36
2022/01/02 12:38:06;;;;;;;3.30;1.50;;;14.90;46.00;;;;;;7361071;19;21054;-39
2022/01/02 12:40:41;;;;;;;2.77;2.00;;;14.90;45.80;;;;;;7369094;19;20372;-39
2022/01/02 12:43:11;;;;;;;1.40;1.00;;;15.00;46.80;;;;;;7362170;19;20364;-39
2022/01/02 12:45:43;;;;;;;2.63;1.40;;;15.00;45.90;;;;;;7365950;19;20897;-39
2022/01/02 12:48:13;;;;;;;1.33;1.20;;;;;;;;;;7358470;19;20369;-45
2022/01/02 12:50:45;;;;;;;1.40;1.10;;;;;;;;;;7369854;19;20378;-46
2022/01/02 12:53:26;;;;;;;1.60;1.00;;;;;;;;;;7372067;19;20913;-46
2022/01/02 12:56:00;;;;;;;3.43;1.10;;;;;;;;;;7368496;19;20379;-46
2022/01/02 12:58:30;;;;;;;1.70;1.50;;;;;;;;;;7378598;19;20513;-46
2022/01/02 13:01:05;;;;;;;1.77;1.47;;;;;;;;;;7376908;19;20375;-46
2022/01/02 13:03:34;;;;;;;1.50;1.10;;;;;;;;;;7372789;19;20463;-46
2022/01/02 13:06:06;;;;;;;8.40;1.93;;;;;;;;;;7369979;19;20941;-46
2022/01/02 13:08:36;;;;;;;2.10;1.60;;;;;;;;;;7373036;19;25017;-46
2022/01/02 13:11:11;;;;;;;2.50;1.63;;;;;;;;;;7367581;19;20424;-45
2022/01/02 13:13:40;;;;;;;2.33;1.80;;;;;;;;;;7375244;19;20375;-46
2022/01/02 13:16:10;;;;;;;1.83;1.50;;;;;;;;;;7370152;19;20388;-46
2022/01/02 13:18:42;;;;;;;1.83;1.60;;;;;;;;;;7348614;19;20431;-46
2022/01/02 13:21:18;;;;;;;2.60;1.63;;;;;;;;;;7375746;19;20391;-46
2022/01/02 13:23:50;;;;;;;2.47;1.80;;;;;;;;;;7368265;19;20955;-44
2022/01/02 13:26:20;;;;;;;2.30;1.50;;;;;;;;;;7372898;19;20419;-44
2022/01/02 13:28:50;;;;;;;3.37;1.70;;;;;;;;;;7375966;19;20368;-44
2022/01/02 13:31:29;;;;;;;2.10;1.53;;;;;;;;;;7375862;19;20415;-44
2022/01/02 13:33:58;;;;;;;3.50;1.73;;;;;;;;;;7375800;19;20936;-44
2022/01/02 13:36:30;;;;;;;2.63;1.40;;;;;;;;;;7363294;19;20420;-44
2022/01/02 13:39:02;;;;;;;1.93;1.60;;;;;;;;;;7368978;19;20372;-44
2022/01/02 13:41:35;;;;;;;2.97;1.40;;;;;;;;;;7369646;19;20756;-44
2022/01/02 13:44:17;;;;;;;2.93;1.40;;;;;;;;;;7370361;19;20404;-44
2022/01/02 13:46:53;;;;;;;2.50;1.53;;;;;;;;;;7373930;19;20400;-44
2022/01/02 13:49:38;;;;;;;1.53;1.33;;;;;;;;;;7370940;19;20408;-44
2022/01/02 13:52:10;;;;;;;2.80;1.53;;;;;;;;;;7371052;19;21063;-44
2022/01/02 13:54:40;;;;;;;1.90;1.57;;;;;;;;;;7355002;19;21847;-44
2022/01/02 13:57:11;;;;;;;1.93;1.30;;;;;;;;;;7370572;19;20373;-44
2022/01/02 13:59:40;;;;;;;2.57;1.70;;;;;;;;;;7364795;19;20366;-44
2022/01/02 14:02:10;;;;;;;3.17;1.50;;;;;;;;;;7368138;19;20760;-44
2022/01/02 14:04:55;;;;;;;7.27;3.07;;;;;;;;;;7374282;19;20383;-44
2022/01/02 14:07:29;;;;;;;3.60;1.40;;;;;;;;;;7373117;19;20376;-44
2022/01/02 14:10:02;;;;;;;2.00;1.40;;;;;;;;;;7369724;19;20719;-44
2022/01/02 14:12:34;;;;;;;2.13;1.73;;;;;;;;;;7358823;19;20765;-44
2022/01/02 14:15:16;;;;;;;3.00;1.80;;;;;;;;;;7362598;19;20977;-44
2022/01/02 14:17:49;;;;;;;2.00;1.43;;;;;;;;;;7367364;19;20367;-46
2022/01/02 14:20:20;;;;;;;4.03;2.30;;;;;;;;;;7366564;19;20372;-45
2022/01/02 14:22:52;;;;;;;2.10;1.90;;;;;;;;;;7370349;19;20372;-45
2022/01/02 14:25:22;;;;;;;1.47;1.30;;;;;;;;;;7371363;19;20897;-45
2022/01/02 14:27:55;;;;;;;4.10;2.00;;;;;;;;;;7372783;19;20825;-45
2022/01/02 14:30:26;;;;;;;2.27;1.50;;;;;;;;;;7372728;19;20376;-46
2022/01/02 14:32:58;;;;;;;4.57;1.30;;;;;;;;;;7371069;19;20900;-46
2022/01/02 14:35:28;;;;;;;3.43;1.50;;;;;;;;;;7364237;19;21271;-47
2022/01/02 14:38:00;;;;;;;4.30;1.20;;;;;;;;;;7367169;19;20443;-46
2022/01/02 14:40:30;;;;;;;2.10;1.30;;;;;;;;;;7364563;19;21068;-46
2022/01/02 14:42:59;;;;;;;3.20;2.10;;;;;;;;;;7366391;19;20374;-46
2022/01/02 14:45:29;;;;;;;2.50;1.57;;;;;;;;;;7368964;19;20808;-46
2022/01/02 14:47:58;;;;;;;2.88;1.70;;;;;;;;;;7364282;19;20366;-46